Time;durP1;ratioP1;P1;durP2;ratioP2;P2;SDS_P1;SDS_P2;PMS_P1;PMS_P2;Temp;Humidity;BMP_temperature;BMP_pressure;BME280_temperature;BME280_humidity;BME280_pressure;Samples;Min_cycle;Max_cycle;Signal;HPM_P1;HPM_P2
2023/06/10 00:00:56;;;;;;;12.67;11.57;;;21.80;1.00;;;;;;5064247;28;20238;-54
2023/06/10 00:03:23;;;;;;;14.17;11.87;;;21.80;1.00;;;;;;5050761;28;20442;-56
2023/06/10 00:05:49;;;;;;;12.70;11.70;;;21.80;1.00;;;;;;5048839;28;20194;-52
2023/06/10 00:08:15;;;;;;;12.07;11.17;;;21.80;1.00;;;;;;5050757;28;20448;-55
2023/06/10 00:10:41;;;;;;;12.90;11.80;;;21.90;1.00;;;;;;5048740;28;20278;-54
2023/06/10 00:13:11;;;;;;;11.97;11.00;;;21.80;1.00;;;;;;5050110;28;20473;-53
2023/06/10 00:15:37;;;;;;;13.90;11.13;;;21.60;1.00;;;;;;5048917;28;20191;-52
2023/06/10 00:18:04;;;;;;;13.57;12.37;;;21.40;1.00;;;;;;5048185;28;20465;-55
2023/06/10 00:20:30;;;;;;;12.80;11.60;;;21.50;1.00;;;;;;5052670;28;20447;-53
2023/06/10 00:22:59;;;;;;;12.20;11.20;;;21.60;1.00;;;;;;5050943;28;20460;-54
2023/06/10 00:25:25;;;;;;;13.03;12.03;;;21.60;1.00;;;;;;5049065;28;20445;-53
2023/06/10 00:27:51;;;;;;;12.47;11.37;;;21.60;1.00;;;;;;5057605;28;20574;-53
2023/06/10 00:30:17;;;;;;;12.23;11.20;;;21.70;1.00;;;;;;5064987;28;20449;-53
2023/06/10 00:32:42;;;;;;;12.77;11.57;;;21.70;1.00;;;;;;5052892;28;20210;-52
2023/06/10 00:35:08;;;;;;;11.40;10.50;;;21.70;1.00;;;;;;5046522;28;20279;-52
2023/06/10 00:37:38;;;;;;;11.43;10.50;;;21.60;1.00;;;;;;5054626;28;20254;-55
2023/06/10 00:40:04;;;;;;;12.00;10.90;;;21.60;1.00;;;;;;5054438;28;20239;-55
2023/06/10 00:42:30;;;;;;;10.73;9.83;;;21.60;1.00;;;;;;5049193;28;20542;-54
2023/06/10 00:44:55;;;;;;;11.03;10.03;;;21.50;1.00;;;;;;5061865;28;20541;-55
2023/06/10 00:47:21;;;;;;;10.53;9.63;;;21.40;1.00;;;;;;5046309;28;20233;-53
2023/06/10 00:49:49;;;;;;;10.23;9.23;;;21.40;1.00;;;;;;5052063;28;20189;-53
2023/06/10 00:52:16;;;;;;;10.60;9.60;;;21.40;1.00;;;;;;5049161;28;20481;-53
2023/06/10 00:54:42;;;;;;;9.77;8.70;;;21.40;1.00;;;;;;5065490;28;20443;-52
2023/06/10 00:57:08;;;;;;;10.97;10.00;;;21.20;1.00;;;;;;5060390;28;20866;-54
2023/06/10 00:59:34;;;;;;;12.20;11.20;;;21.20;1.00;;;;;;5047434;28;20476;-53
2023/06/10 01:02:00;;;;;;;10.03;9.13;;;21.20;1.00;;;;;;5042872;28;20878;-54
2023/06/10 01:04:26;;;;;;;9.97;9.17;;;21.10;1.00;;;;;;5046602;28;20215;-53
2023/06/10 01:07:09;;;;;;;10.67;9.70;;;21.10;1.00;;;;;;5053808;28;20486;-52
2023/06/10 01:09:35;;;;;;;11.10;10.00;;;21.00;1.00;;;;;;5045199;28;20193;-52
2023/06/10 01:12:32;;;;;;;9.73;8.93;;;21.00;1.00;;;;;;5048180;28;21003;-55
2023/06/10 01:14:59;;;;;;;11.13;10.13;;;20.90;1.00;;;;;;5045625;28;20547;-54
2023/06/10 01:17:27;;;;;;;11.80;10.80;;;20.90;1.00;;;;;;5057401;28;20970;-53
2023/06/10 01:19:56;;;;;;;9.30;8.60;;;20.30;1.00;;;;;;5060489;28;20426;-55
2023/06/10 01:22:32;;;;;;;10.30;9.30;;;20.70;1.00;;;;;;5049572;28;20873;-54
2023/06/10 01:24:58;;;;;;;9.70;9.00;;;20.70;1.00;;;;;;5045396;28;20747;-53
2023/06/10 01:27:29;;;;;;;9.87;9.00;;;20.80;1.00;;;;;;5046622;28;20450;-53
2023/06/10 01:30:04;;;;;;;10.37;9.47;;;20.70;1.00;;;;;;5047500;28;20516;-52
2023/06/10 01:32:37;;;;;;;10.80;10.00;;;20.70;1.00;;;;;;5046430;28;21000;-53
2023/06/10 01:35:03;;;;;;;9.67;8.77;;;20.60;1.00;;;;;;5048370;28;20464;-55
2023/06/10 01:37:30;;;;;;;10.03;9.03;;;20.60;1.00;;;;;;5049910;28;20442;-52
2023/06/10 01:39:58;;;;;;;10.23;9.40;;;20.60;1.00;;;;;;5048122;28;20968;-55
2023/06/10 01:42:25;;;;;;;10.03;9.13;;;20.50;1.00;;;;;;5046929;28;20448;-55
2023/06/10 01:44:51;;;;;;;10.67;9.57;;;20.50;1.00;;;;;;5048925;28;20444;-54
2023/06/10 01:47:17;;;;;;;10.60;9.70;;;20.50;1.00;;;;;;5047014;28;20961;-53
2023/06/10 01:49:43;;;;;;;11.00;9.90;;;20.50;1.00;;;;;;5048980;28;20445;-53
2023/06/10 01:52:09;;;;;;;11.33;10.33;;;20.60;1.00;;;;;;5046063;28;20473;-53
2023/06/10 01:54:34;;;;;;;9.60;8.90;;;20.60;1.00;;;;;;5051053;28;20666;-52
2023/06/10 01:57:01;;;;;;;11.53;10.63;;;20.50;1.00;;;;;;5048559;28;20452;-54
2023/06/10 01:59:27;;;;;;;10.77;9.87;;;20.50;1.00;;;;;;5048551;28;20229;-53
2023/06/10 02:01:54;;;;;;;11.53;10.57;;;20.50;1.00;;;;;;5048206;28;20449;-54
2023/06/10 02:04:19;;;;;;;10.83;10.03;;;20.50;1.00;;;;;;5048890;28;20625;-55
2023/06/10 02:06:45;;;;;;;11.23;10.23;;;20.40;1.00;;;;;;5068627;28;20515;-54
2023/06/10 02:09:11;;;;;;;10.97;10.10;;;20.40;1.00;;;;;;5068634;28;20212;-54
2023/06/10 02:11:37;;;;;;;11.13;10.13;;;20.30;1.00;;;;;;5063151;28;20537;-54
2023/06/10 02:14:02;;;;;;;10.97;9.97;;;20.30;1.00;;;;;;5046094;28;20193;-53
2023/06/10 02:16:28;;;;;;;11.70;10.70;;;20.20;1.00;;;;;;5049281;28;20196;-55
2023/06/10 02:18:54;;;;;;;10.53;9.63;;;20.10;1.00;;;;;;5068449;28;20193;-52
2023/06/10 02:21:20;;;;;;;10.70;9.80;;;20.10;1.00;;;;;;5068537;28;20173;-54
2023/06/10 02:23:45;;;;;;;11.93;10.87;;;20.10;1.00;;;;;;5051010;28;20604;-54
2023/06/10 02:26:11;;;;;;;11.87;10.87;;;20.10;1.00;;;;;;5048357;28;20193;-54
2023/06/10 02:28:37;;;;;;;11.40;10.50;;;20.10;1.00;;;;;;5047757;28;20192;-54
2023/06/10 02:31:02;;;;;;;11.87;10.80;;;20.00;1.00;;;;;;5053929;28;20543;-53
2023/06/10 02:33:28;;;;;;;11.80;10.90;;;19.90;1.00;;;;;;5047241;28;20277;-54
2023/06/10 02:35:54;;;;;;;11.93;11.03;;;19.80;1.00;;;;;;5048416;28;20212;-55
2023/06/10 02:38:20;;;;;;;11.83;10.83;;;19.70;1.00;;;;;;5063724;28;20249;-54
2023/06/10 02:40:46;;;;;;;12.83;11.73;;;19.70;1.00;;;;;;5060057;28;20945;-51
2023/06/10 02:43:12;;;;;;;11.80;10.80;;;19.60;1.00;;;;;;5057892;28;20194;-54
2023/06/10 02:45:37;;;;;;;12.27;11.17;;;19.70;1.00;;;;;;5052780;28;20597;-56
2023/06/10 02:48:03;;;;;;;11.90;10.90;;;19.60;1.00;;;;;;5051991;28;20226;-55
2023/06/10 02:50:28;;;;;;;12.33;11.43;;;19.60;1.00;;;;;;5052297;28;20188;-54
2023/06/10 02:52:54;;;;;;;11.90;10.80;;;19.60;1.00;;;;;;5052023;28;20211;-54
2023/06/10 02:55:21;;;;;;;11.17;10.17;;;19.60;1.00;;;;;;5049596;28;20198;-53
2023/06/10 02:57:46;;;;;;;12.10;11.10;;;19.60;1.00;;;;;;5051856;28;20188;-55
2023/06/10 03:00:14;;;;;;;12.13;11.13;;;19.60;1.00;;;;;;5051477;28;20551;-53
2023/06/10 03:02:39;;;;;;;11.70;10.73;;;19.60;1.00;;;;;;5051445;28;20586;-51
2023/06/10 03:05:09;;;;;;;11.40;10.40;;;19.70;1.00;;;;;;5050059;28;20490;-53
2023/06/10 03:07:36;;;;;;;11.97;11.03;;;19.70;1.00;;;;;;5054450;28;20267;-53
2023/06/10 03:10:01;;;;;;;11.53;10.53;;;19.70;1.00;;;;;;5071294;28;20432;-55
2023/06/10 03:12:27;;;;;;;12.20;11.20;;;19.70;1.00;;;;;;5049484;28;20488;-54
2023/06/10 03:14:53;;;;;;;12.00;11.00;;;19.70;1.00;;;;;;5050506;28;20198;-54
2023/06/10 03:17:18;;;;;;;12.07;11.07;;;19.70;1.00;;;;;;5049789;28;20215;-52
2023/06/10 03:19:44;;;;;;;13.50;12.30;;;19.70;1.00;;;;;;5049935;28;20197;-53
2023/06/10 03:22:10;;;;;;;12.33;11.23;;;19.60;1.00;;;;;;5066302;28;20185;-52
2023/06/10 03:24:39;;;;;;;13.93;12.53;;;19.60;1.00;;;;;;5061537;28;20193;-53
2023/06/10 03:27:09;;;;;;;12.70;11.60;;;19.50;1.00;;;;;;5050268;28;20453;-56
2023/06/10 03:29:37;;;;;;;12.07;11.17;;;19.50;1.00;;;;;;5048895;28;20460;-55
2023/06/10 03:32:03;;;;;;;12.03;11.03;;;19.50;1.00;;;;;;5048430;28;20556;-51
2023/06/10 03:34:29;;;;;;;13.03;11.87;;;19.60;1.00;;;;;;5048687;28;20674;-54
2023/06/10 03:36:56;;;;;;;11.97;10.97;;;19.80;1.00;;;;;;5049599;28;20585;-51
2023/06/10 03:39:23;;;;;;;11.30;10.07;;;20.00;1.00;;;;;;5056904;28;20454;-55
2023/06/10 03:41:49;;;;;;;11.87;10.87;;;20.20;1.00;;;;;;5053750;28;20957;-53
2023/06/10 03:44:15;;;;;;;11.50;10.60;;;20.60;1.00;;;;;;5062072;28;20444;-55
2023/06/10 03:46:40;;;;;;;11.67;10.67;;;20.90;1.00;;;;;;5059515;28;20454;-54
2023/06/10 03:49:06;;;;;;;11.43;10.40;;;21.10;1.00;;;;;;5060723;28;20396;-53
2023/06/10 03:51:32;;;;;;;10.87;10.07;;;21.20;1.00;;;;;;5049464;28;20216;-51
2023/06/10 03:53:57;;;;;;;11.17;10.27;;;21.20;1.00;;;;;;5059439;28;20707;-52
2023/06/10 03:56:23;;;;;;;11.30;10.47;;;21.10;1.00;;;;;;5061342;28;20190;-53
2023/06/10 03:58:49;;;;;;;11.70;10.70;;;20.90;1.00;;;;;;5055016;28;20260;-54
2023/06/10 04:01:15;;;;;;;12.90;11.80;;;20.70;1.00;;;;;;5055057;28;20203;-54
2023/06/10 04:03:41;;;;;;;12.53;11.53;;;20.60;1.00;;;;;;5048043;28;20207;-53
2023/06/10 04:06:07;;;;;;;12.17;11.17;;;20.50;1.00;;;;;;5050633;28;20449;-54
2023/06/10 04:08:33;;;;;;;12.20;11.30;;;20.50;1.00;;;;;;5049537;28;20524;-54
2023/06/10 04:10:59;;;;;;;14.90;13.60;;;20.40;1.00;;;;;;5052378;28;20438;-53
2023/06/10 04:13:24;;;;;;;14.87;13.67;;;20.40;1.00;;;;;;5057544;28;20231;-54
2023/06/10 04:15:51;;;;;;;15.47;14.17;;;20.30;1.00;;;;;;5055721;28;20242;-51
2023/06/10 04:18:17;;;;;;;13.97;12.87;;;20.20;1.00;;;;;;5051962;28;20255;-57
2023/06/10 04:20:44;;;;;;;14.37;13.13;;;20.20;1.00;;;;;;5048354;28;20848;-54
2023/06/10 04:23:10;;;;;;;14.90;13.70;;;20.20;1.00;;;;;;5050271;28;20624;-52
2023/06/10 04:25:35;;;;;;;14.13;13.03;;;20.20;1.00;;;;;;5050613;28;20450;-54
2023/06/10 04:28:01;;;;;;;14.33;13.17;;;20.30;1.00;;;;;;5052927;28;20194;-54
2023/06/10 04:30:27;;;;;;;14.83;13.60;;;20.30;1.00;;;;;;5060893;28;20211;-55
2023/06/10 04:32:52;;;;;;;14.77;13.57;;;20.40;1.00;;;;;;5051223;28;20678;-54
2023/06/10 04:35:18;;;;;;;13.90;12.80;;;20.40;1.00;;;;;;5050395;28;20637;-51
2023/06/10 04:37:43;;;;;;;13.23;12.03;;;20.50;1.00;;;;;;5046452;28;20250;-53
2023/06/10 04:40:09;;;;;;;13.13;12.13;;;20.60;1.00;;;;;;5056760;28;20640;-55
2023/06/10 04:42:36;;;;;;;13.63;12.43;;;20.70;1.00;;;;;;5050316;28;20195;-54
2023/06/10 04:45:02;;;;;;;13.90;12.70;;;20.70;1.00;;;;;;5058850;28;20452;-55
2023/06/10 04:47:28;;;;;;;14.30;13.00;;;20.80;1.00;;;;;;5049635;28;20540;-54
2023/06/10 04:49:54;;;;;;;13.50;12.30;;;20.80;1.00;;;;;;5057071;28;20548;-54
2023/06/10 04:52:19;;;;;;;13.97;12.87;;;20.90;1.00;;;;;;5056461;28;20229;-55
2023/06/10 04:54:45;;;;;;;12.20;11.10;;;21.00;1.00;;;;;;5050131;28;20186;-54
2023/06/10 04:57:11;;;;;;;13.10;11.87;;;21.00;1.00;;;;;;5046581;28;20531;-54
2023/06/10 04:59:38;;;;;;;12.60;11.60;;;21.10;1.00;;;;;;5046345;28;20229;-54
2023/06/10 05:02:05;;;;;;;12.47;11.47;;;21.20;1.00;;;;;;5057206;28;20748;-54
2023/06/10 05:04:30;;;;;;;12.03;10.93;;;21.40;1.00;;;;;;5053591;28;20988;-52
2023/06/10 05:06:56;;;;;;;13.27;12.07;;;21.40;1.00;;;;;;5048632;28;20440;-56
2023/06/10 05:09:22;;;;;;;11.20;10.10;;;21.50;1.00;;;;;;5049102;28;20245;-52
2023/06/10 05:11:48;;;;;;;10.60;9.80;;;21.50;1.00;;;;;;5054846;28;20256;-54
2023/06/10 05:14:16;;;;;;;11.07;10.00;;;21.60;1.00;;;;;;5047085;28;20181;-56
2023/06/10 05:16:43;;;;;;;10.00;9.30;;;21.70;1.00;;;;;;5043197;28;20192;-54
2023/06/10 05:19:09;;;;;;;9.90;9.10;;;21.70;1.00;;;;;;5044896;28;20453;-54
2023/06/10 05:21:35;;;;;;;10.00;9.20;;;21.90;1.00;;;;;;5047929;28;20432;-53
2023/06/10 05:24:01;;;;;;;12.10;10.30;;;22.00;1.00;;;;;;5050371;28;20781;-51
2023/06/10 05:26:26;;;;;;;10.60;9.80;;;21.90;1.00;;;;;;5045950;28;20188;-56
2023/06/10 05:28:52;;;;;;;10.60;9.63;;;21.90;1.00;;;;;;5051974;28;20192;-53
2023/06/10 05:31:18;;;;;;;10.43;8.87;;;21.90;1.00;;;;;;5053288;28;20194;-55
2023/06/10 05:33:43;;;;;;;9.40;8.60;;;21.80;1.00;;;;;;5063665;28;20987;-54
2023/06/10 05:36:09;;;;;;;9.80;8.90;;;21.70;1.00;;;;;;5058237;28;20212;-54
2023/06/10 05:38:35;;;;;;;9.90;9.17;;;21.50;1.00;;;;;;5049012;28;20506;-51
2023/06/10 05:41:00;;;;;;;9.23;8.30;;;21.50;1.00;;;;;;5045107;28;20279;-53
2023/06/10 05:43:26;;;;;;;10.00;9.20;;;21.70;1.00;;;;;;5057184;28;20656;-55
2023/06/10 05:45:52;;;;;;;9.67;8.80;;;21.80;1.00;;;;;;5058412;28;20194;-55
2023/06/10 05:48:19;;;;;;;9.53;8.73;;;22.10;1.00;;;;;;5049354;28;20208;-53
2023/06/10 05:50:48;;;;;;;9.90;8.97;;;22.30;1.00;;;;;;5042205;28;20459;-52
2023/06/10 05:53:14;;;;;;;9.53;8.83;;;22.30;1.00;;;;;;5049750;28;20530;-54
2023/06/10 05:55:45;;;;;;;9.43;8.63;;;22.30;1.00;;;;;;5048907;28;20453;-55
2023/06/10 05:58:12;;;;;;;9.30;8.50;;;22.40;1.00;;;;;;5048238;28;20936;-55
2023/06/10 06:00:41;;;;;;;7.70;7.10;;;22.50;1.00;;;;;;5053110;28;20495;-53
2023/06/10 06:03:09;;;;;;;7.93;7.33;;;22.50;1.00;;;;;;5055375;28;20533;-53
2023/06/10 06:05:37;;;;;;;8.70;8.00;;;22.40;99.90;;;;;;5057295;28;21069;-54
2023/06/10 06:08:06;;;;;;;7.60;7.00;;;22.40;1.00;;;;;;5058355;28;20439;-55
2023/06/10 06:10:32;;;;;;;7.43;6.70;;;22.40;99.90;;;;;;5068822;28;20487;-54
2023/06/10 06:12:58;;;;;;;8.43;7.63;;;22.50;99.90;;;;;;5058244;28;20961;-53
2023/06/10 06:15:23;;;;;;;9.37;8.57;;;22.80;99.90;;;;;;5058604;28;20209;-52
2023/06/10 06:17:52;;;;;;;7.67;7.00;;;23.10;99.90;;;;;;5051349;28;20183;-52
2023/06/10 06:20:18;;;;;;;8.93;8.23;;;23.40;99.90;;;;;;5056729;28;20201;-54
2023/06/10 06:22:44;;;;;;;7.10;6.50;;;23.50;99.90;;;;;;5055718;28;20447;-55
2023/06/10 06:25:10;;;;;;;8.20;7.60;;;23.70;99.90;;;;;;5062840;28;20445;-56
2023/06/10 06:27:35;;;;;;;7.97;7.17;;;24.00;99.90;;;;;;5070938;28;20433;-54
2023/06/10 06:30:01;;;;;;;7.90;7.13;;;24.10;99.90;;;;;;5069565;28;20197;-54
2023/06/10 06:32:27;;;;;;;7.93;7.30;;;24.20;99.90;;;;;;5049887;28;20213;-54
2023/06/10 06:34:54;;;;;;;7.60;7.00;;;24.10;99.90;;;;;;5060904;28;20175;-55
2023/06/10 06:37:26;;;;;;;7.60;7.00;;;24.10;99.90;;;;;;5059358;28;20453;-56
2023/06/10 06:39:54;;;;;;;7.53;6.90;;;24.00;99.90;;;;;;5059635;28;20437;-56
2023/06/10 06:42:20;;;;;;;8.10;7.50;;;24.10;99.90;;;;;;5069904;28;20799;-53
2023/06/10 06:44:47;;;;;;;8.87;8.27;;;24.10;99.90;;;;;;5064026;28;20434;-54
2023/06/10 06:47:13;;;;;;;8.30;7.60;;;24.50;99.90;;;;;;5053611;28;20479;-53
2023/06/10 06:49:39;;;;;;;10.50;9.70;;;24.50;99.90;;;;;;5054205;28;20460;-52
2023/06/10 06:52:05;;;;;;;8.30;7.60;;;24.30;99.90;;;;;;5054649;28;20447;-55
2023/06/10 06:54:31;;;;;;;8.67;8.07;;;24.10;99.90;;;;;;5055841;28;20186;-54
2023/06/10 06:56:57;;;;;;;9.07;8.03;;;24.00;99.90;;;;;;5047053;28;20450;-53
2023/06/10 06:59:23;;;;;;;8.60;8.00;;;24.00;99.90;;;;;;5053506;28;20564;-51
2023/06/10 07:01:49;;;;;;;7.70;7.10;;;24.00;99.90;;;;;;5049250;28;20372;-55
2023/06/10 07:04:15;;;;;;;8.60;7.90;;;24.20;99.90;;;;;;5059260;28;20458;-53
2023/06/10 07:06:41;;;;;;;8.63;7.93;;;24.40;99.90;;;;;;5058158;28;20599;-55
2023/06/10 07:09:09;;;;;;;8.33;7.57;;;24.40;99.90;;;;;;5050399;28;20456;-54
2023/06/10 07:11:35;;;;;;;9.13;8.43;;;24.60;99.90;;;;;;5055641;28;20604;-55
2023/06/10 07:14:01;;;;;;;7.33;6.83;;;24.70;99.90;;;;;;5053410;28;20531;-55
2023/06/10 07:16:26;;;;;;;8.63;7.97;;;24.70;99.90;;;;;;5054939;28;20227;-55
2023/06/10 07:18:55;;;;;;;8.70;7.90;;;24.60;99.90;;;;;;5062824;28;20205;-55
2023/06/10 07:21:22;;;;;;;8.80;8.10;;;24.60;99.90;;;;;;5049013;28;20193;-54
2023/06/10 07:23:48;;;;;;;11.80;11.00;;;24.70;99.90;;;;;;5058180;28;20430;-55
2023/06/10 07:26:13;;;;;;;9.43;8.43;;;24.90;99.90;;;;;;5055128;28;20800;-55
2023/06/10 07:28:42;;;;;;;9.00;8.30;;;25.10;99.90;;;;;;5059211;28;20439;-54
2023/06/10 07:31:08;;;;;;;9.03;8.43;;;25.20;99.90;;;;;;5049152;28;20177;-54
2023/06/10 07:33:34;;;;;;;9.03;8.40;;;25.20;99.90;;;;;;5052889;28;20468;-53
2023/06/10 07:36:00;;;;;;;9.23;8.47;;;25.30;99.90;;;;;;5057799;28;20460;-54
2023/06/10 07:38:26;;;;;;;10.27;9.23;;;25.40;99.90;;;;;;5055392;28;20483;-54
2023/06/10 07:40:52;;;;;;;9.10;8.40;;;25.60;99.90;;;;;;5052218;28;20444;-56
2023/06/10 07:43:18;;;;;;;9.03;8.33;;;25.90;99.90;;;;;;5048745;28;20465;-54
2023/06/10 07:45:44;;;;;;;8.13;7.43;;;26.10;99.90;;;;;;5059633;28;20476;-53
2023/06/10 07:48:10;;;;;;;9.00;8.20;;;26.20;99.90;;;;;;5052097;28;20190;-53
2023/06/10 07:50:35;;;;;;;8.90;8.10;;;26.40;99.90;;;;;;5043684;28;21006;-53
2023/06/10 07:53:01;;;;;;;9.10;8.40;;;26.40;99.90;;;;;;5049986;28;20216;-54
2023/06/10 07:55:27;;;;;;;9.40;8.50;;;26.30;99.90;;;;;;5056249;28;20189;-54
2023/06/10 07:57:53;;;;;;;9.70;9.00;;;26.30;99.90;;;;;;5059602;28;20529;-53
2023/06/10 08:00:20;;;;;;;9.60;8.90;;;26.40;99.90;;;;;;5053795;28;20225;-54
2023/06/10 08:02:46;;;;;;;8.93;8.33;;;26.60;99.90;;;;;;5054038;28;20456;-55
2023/06/10 08:05:11;;;;;;;9.20;8.40;;;26.70;99.90;;;;;;5048743;28;20788;-55
2023/06/10 08:07:38;;;;;;;10.00;9.10;;;26.80;99.90;;;;;;5053265;28;20766;-54
2023/06/10 08:10:05;;;;;;;10.10;9.03;;;26.60;99.90;;;;;;5049786;28;20593;-52
2023/06/10 08:12:31;;;;;;;9.17;8.30;;;26.70;99.90;;;;;;5060358;28;20801;-53
2023/06/10 08:14:57;;;;;;;9.37;8.47;;;26.80;99.90;;;;;;5057471;28;20424;-53
2023/06/10 08:17:23;;;;;;;9.00;8.30;;;27.10;99.90;;;;;;5057319;28;20431;-52
2023/06/10 08:19:49;;;;;;;9.07;8.27;;;27.10;99.90;;;;;;5060009;28;20218;-54
2023/06/10 08:22:15;;;;;;;9.37;8.67;;;26.90;99.90;;;;;;5048686;28;20562;-54
2023/06/10 08:24:40;;;;;;;9.13;8.43;;;27.10;99.90;;;;;;5049098;28;20792;-54
2023/06/10 08:27:06;;;;;;;9.07;8.37;;;27.20;99.90;;;;;;5054373;28;20206;-54
2023/06/10 08:29:32;;;;;;;9.10;8.40;;;27.40;99.90;;;;;;5062351;28;20189;-52
2023/06/10 08:31:58;;;;;;;9.20;8.50;;;27.50;99.90;;;;;;5043673;28;20211;-54
2023/06/10 08:34:24;;;;;;;9.50;8.70;;;27.60;99.90;;;;;;5043990;28;20477;-54
2023/06/10 08:36:55;;;;;;;9.50;8.80;;;27.80;99.90;;;;;;5059194;28;20183;-54
2023/06/10 08:39:22;;;;;;;9.20;8.40;;;28.00;99.90;;;;;;5048589;28;20801;-54
2023/06/10 08:42:10;;;;;;;9.10;8.30;;;28.10;99.90;;;;;;5049363;28;20454;-55
2023/06/10 08:44:39;;;;;;;9.80;9.10;;;27.70;99.90;;;;;;5049454;28;20477;-54
2023/06/10 08:47:15;;;;;;;9.10;8.47;;;27.40;99.90;;;;;;5048585;28;20462;-53
2023/06/10 08:49:47;;;;;;;9.07;8.27;;;27.50;99.90;;;;;;5048413;28;20479;-53
2023/06/10 08:52:20;;;;;;;9.40;8.57;;;27.70;99.90;;;;;;5049574;28;20680;-55
2023/06/10 08:54:59;;;;;;;9.73;9.03;;;27.90;99.90;;;;;;5047361;28;20427;-53
2023/06/10 08:57:26;;;;;;;8.80;8.07;;;27.60;99.90;;;;;;5048410;28;20518;-53
2023/06/10 08:59:54;;;;;;;8.80;8.17;;;27.60;99.90;;;;;;5049259;28;20564;-52
2023/06/10 09:02:20;;;;;;;8.33;7.73;;;27.80;99.90;;;;;;5047331;28;20484;-53
2023/06/10 09:04:49;;;;;;;9.43;8.57;;;27.70;99.90;;;;;;5060001;28;20541;-55
2023/06/10 09:07:18;;;;;;;8.60;8.00;;;27.70;99.90;;;;;;5048959;28;20906;-53
2023/06/10 09:09:44;;;;;;;8.87;8.20;;;27.60;99.90;;;;;;5044697;28;21012;-53
2023/06/10 09:12:12;;;;;;;8.60;7.80;;;27.30;99.90;;;;;;5051167;28;20469;-53
2023/06/10 09:14:37;;;;;;;8.77;7.97;;;27.20;99.90;;;;;;5052923;28;20454;-52
2023/06/10 09:17:05;;;;;;;9.20;8.40;;;27.30;99.90;;;;;;5055937;28;20785;-53
2023/06/10 09:19:31;;;;;;;9.00;8.27;;;27.30;99.90;;;;;;5068092;28;20190;-54
2023/06/10 09:21:56;;;;;;;9.07;8.17;;;27.40;99.90;;;;;;5054156;28;20450;-53
2023/06/10 09:24:23;;;;;;;8.10;7.40;;;27.70;99.90;;;;;;5054092;28;20472;-54
2023/06/10 09:26:50;;;;;;;8.13;7.47;;;27.70;99.90;;;;;;5046402;28;20255;-54
2023/06/10 09:29:16;;;;;;;7.43;6.83;;;27.80;99.90;;;;;;5043185;28;20466;-53
2023/06/10 09:31:44;;;;;;;9.33;7.40;;;27.60;99.90;;;;;;5049685;28;20482;-53
2023/06/10 09:34:12;;;;;;;9.50;8.70;;;27.60;99.90;;;;;;5045725;28;21980;-53
2023/06/10 09:36:38;;;;;;;9.00;8.30;;;27.70;99.90;;;;;;5040840;28;20452;-52
2023/06/10 09:39:05;;;;;;;8.43;7.73;;;27.50;99.90;;;;;;5036627;28;20474;-52
2023/06/10 09:41:40;;;;;;;9.10;8.20;;;27.60;99.90;;;;;;5055535;28;20447;-52
2023/06/10 09:44:14;;;;;;;8.87;8.00;;;28.00;99.90;;;;;;5053158;28;20445;-56
2023/06/10 09:46:40;;;;;;;8.40;7.60;;;28.40;99.90;;;;;;5057763;28;20791;-54
2023/06/10 09:49:05;;;;;;;8.17;7.40;;;28.70;99.90;;;;;;5051639;28;20436;-53
2023/06/10 09:51:32;;;;;;;8.73;7.90;;;28.70;99.90;;;;;;5053334;28;20198;-55
2023/06/10 09:53:59;;;;;;;8.03;7.43;;;28.40;99.90;;;;;;5057531;28;20187;-53
2023/06/10 09:56:35;;;;;;;8.50;7.50;;;28.40;99.90;;;;;;5073281;28;21011;-54
2023/06/10 09:59:02;;;;;;;7.77;7.17;;;28.40;99.90;;;;;;5048573;28;20484;-54
2023/06/10 10:01:28;;;;;;;7.43;6.83;;;28.30;99.90;;;;;;5049715;28;21030;-53
2023/06/10 10:03:54;;;;;;;8.07;7.47;;;28.20;99.90;;;;;;5065627;28;20555;-54
2023/06/10 10:06:20;;;;;;;7.70;7.00;;;28.20;99.90;;;;;;5052877;28;20288;-53
2023/06/10 10:08:49;;;;;;;7.30;6.70;;;28.40;99.90;;;;;;5052870;28;20441;-53
2023/06/10 10:11:16;;;;;;;6.50;6.00;;;28.60;99.90;;;;;;5060201;28;20438;-54
2023/06/10 10:13:44;;;;;;;8.77;6.10;;;28.70;99.90;;;;;;5061576;28;20565;-54
2023/06/10 10:16:15;;;;;;;7.07;6.47;;;28.50;99.90;;;;;;5061260;28;20450;-55
2023/06/10 10:18:45;;;;;;;7.03;6.43;;;28.10;99.90;;;;;;5052835;28;20974;-54
2023/06/10 10:21:16;;;;;;;7.80;7.27;;;27.90;99.90;;;;;;5052277;28;20568;-53
2023/06/10 10:24:01;;;;;;;6.97;5.97;;;27.60;99.90;;;;;;5057274;28;20438;-53
2023/06/10 10:26:27;;;;;;;7.10;6.50;;;27.10;99.90;;;;;;5051357;28;20437;-53
2023/06/10 10:29:08;;;;;;;8.00;7.40;;;26.80;99.90;;;;;;5050315;28;20455;-52
2023/06/10 10:31:36;;;;;;;8.40;7.80;;;26.70;99.90;;;;;;5060922;28;20605;-55
2023/06/10 10:34:07;;;;;;;7.93;7.23;;;26.80;99.90;;;;;;5051406;28;20531;-53
2023/06/10 10:36:33;;;;;;;8.10;7.40;;;26.90;99.90;;;;;;5052322;28;20444;-54
2023/06/10 10:39:01;;;;;;;7.63;7.03;;;26.90;99.90;;;;;;5069750;28;20446;-52
2023/06/10 10:41:30;;;;;;;7.53;6.93;;;27.00;99.90;;;;;;5059299;28;20449;-54
2023/06/10 10:43:56;;;;;;;7.60;6.90;;;27.50;99.90;;;;;;5051889;28;20409;-55
2023/06/10 10:46:21;;;;;;;8.27;7.57;;;28.10;99.90;;;;;;5051606;28;20436;-52
2023/06/10 10:48:53;;;;;;;9.13;7.50;;;28.30;99.90;;;;;;5051852;28;20990;-52
2023/06/10 10:51:19;;;;;;;8.77;8.03;;;28.10;99.90;;;;;;5053413;28;20199;-55
2023/06/10 10:54:04;;;;;;;7.37;6.77;;;28.10;99.90;;;;;;5051889;28;20988;-53
2023/06/10 10:56:30;;;;;;;7.90;7.30;;;28.10;99.90;;;;;;5049560;28;20632;-53
2023/06/10 10:59:05;;;;;;;11.83;7.87;;;28.70;99.90;;;;;;5055228;28;20500;-53
2023/06/10 11:01:45;;;;;;;7.53;6.43;;;29.00;99.90;;;;;;5071107;28;20189;-54
2023/06/10 11:04:12;;;;;;;7.00;6.37;;;29.20;99.90;;;;;;5050515;28;20515;-55
2023/06/10 11:06:37;;;;;;;8.13;7.17;;;29.30;99.90;;;;;;5050917;28;20503;-54
2023/06/10 11:09:29;;;;;;;7.57;6.93;;;29.30;99.90;;;;;;5045544;28;20450;-56
2023/06/10 11:12:01;;;;;;;8.37;7.50;;;29.50;99.90;;;;;;5042499;28;20202;-53
2023/06/10 11:14:30;;;;;;;8.50;7.77;;;29.70;99.90;;;;;;5054041;28;20490;-54
2023/06/10 11:16:59;;;;;;;8.00;7.40;;;29.60;99.90;;;;;;5044189;28;20500;-54
2023/06/10 11:19:46;;;;;;;8.03;7.33;;;29.40;99.90;;;;;;5048953;28;20984;-56
2023/06/10 11:22:17;;;;;;;8.77;8.07;;;28.80;99.90;;;;;;5040052;28;20484;-54
2023/06/10 11:24:48;;;;;;;8.30;7.60;;;28.40;99.90;;;;;;5044252;28;20462;-53
2023/06/10 11:27:26;;;;;;;7.60;6.90;;;28.50;99.90;;;;;;5049833;28;20492;-53
2023/06/10 11:30:01;;;;;;;7.30;6.77;;;28.50;99.90;;;;;;5054175;28;20497;-55
2023/06/10 11:32:33;;;;;;;7.83;7.23;;;28.20;99.90;;;;;;5043864;28;20584;-55
2023/06/10 11:35:02;;;;;;;8.73;7.93;;;27.90;99.90;;;;;;5048871;28;20511;-56
2023/06/10 11:37:28;;;;;;;8.33;7.63;;;27.80;99.90;;;;;;5047641;28;20445;-52
2023/06/10 11:39:54;;;;;;;8.23;7.37;;;28.00;99.90;;;;;;5048643;28;20453;-53
2023/06/10 11:42:21;;;;;;;8.30;7.60;;;28.20;99.90;;;;;;5035243;28;20191;-53
2023/06/10 11:44:51;;;;;;;9.03;8.33;;;28.40;99.90;;;;;;5036687;28;20538;-54
2023/06/10 11:47:17;;;;;;;8.73;8.03;;;28.40;99.90;;;;;;5032978;28;20537;-52
2023/06/10 11:49:43;;;;;;;8.70;7.60;;;28.40;99.90;;;;;;5043468;28;20509;-55
2023/06/10 11:52:09;;;;;;;8.40;7.70;;;28.40;99.90;;;;;;5049417;28;20472;-53
2023/06/10 11:54:34;;;;;;;8.70;7.97;;;28.40;99.90;;;;;;5047249;28;20641;-56
2023/06/10 11:57:00;;;;;;;8.27;7.60;;;28.50;99.90;;;;;;5049059;28;20449;-54
2023/06/10 11:59:30;;;;;;;8.13;7.40;;;28.70;99.90;;;;;;5052842;28;20247;-53
2023/06/10 12:01:56;;;;;;;8.73;7.93;;;28.70;99.90;;;;;;5043875;28;20207;-53
2023/06/10 12:04:22;;;;;;;8.07;7.40;;;28.50;99.90;;;;;;5043895;28;20986;-55
2023/06/10 12:06:52;;;;;;;8.43;7.73;;;28.50;99.90;;;;;;5052743;28;20453;-53
2023/06/10 12:09:26;;;;;;;7.90;7.10;;;28.20;99.90;;;;;;5045006;28;20195;-55
2023/06/10 12:11:53;;;;;;;7.53;6.90;;;28.10;99.90;;;;;;5052689;28;20486;-55
2023/06/10 12:14:56;;;;;;;8.13;7.37;;;28.10;99.90;;;;;;5045855;28;20460;-56
2023/06/10 12:17:31;;;;;;;8.03;7.33;;;28.10;99.90;;;;;;5052958;28;20441;-53
2023/06/10 12:19:57;;;;;;;8.30;7.60;;;28.00;99.90;;;;;;5039926;28;20535;-55
2023/06/10 12:22:24;;;;;;;8.07;7.27;;;28.10;99.90;;;;;;5045630;28;20538;-55
2023/06/10 12:25:04;;;;;;;7.57;6.97;;;28.20;99.90;;;;;;5043026;28;20188;-54
2023/06/10 12:27:31;;;;;;;6.73;6.23;;;28.00;99.90;;;;;;5044927;28;20525;-53
2023/06/10 12:30:03;;;;;;;10.97;6.93;;;28.10;99.90;;;;;;5042317;28;20489;-53
2023/06/10 12:32:40;;;;;;;7.13;6.53;;;28.40;99.90;;;;;;5046784;28;20608;-53
2023/06/10 12:35:07;;;;;;;9.07;8.27;;;28.40;99.90;;;;;;5042804;28;20509;-52
2023/06/10 12:37:33;;;;;;;8.90;8.00;;;28.70;99.90;;;;;;5046107;28;20583;-55
2023/06/10 12:40:01;;;;;;;10.30;8.70;;;28.90;99.90;;;;;;5049473;28;20437;-53
2023/06/10 12:42:26;;;;;;;8.73;7.93;;;29.00;99.90;;;;;;5051086;28;20442;-56
2023/06/10 12:44:56;;;;;;;8.27;7.53;;;28.80;99.90;;;;;;5068545;28;20440;-57